sensor_id;sensor_type;location;lat;lon;timestamp;P1;durP1;ratioP1;P2;durP2;ratioP2
50555;SDS011;36508;52.512;13.450;2024-03-02T00:01:24;48.00;;;43.10;;
50555;SDS011;36508;52.512;13.450;2024-03-02T00:03:49;50.03;;;44.63;;
50555;SDS011;36508;52.512;13.450;2024-03-02T00:06:15;53.63;;;44.43;;
50555;SDS011;36508;52.512;13.450;2024-03-02T00:08:46;52.40;;;46.73;;
50555;SDS011;36508;52.512;13.450;2024-03-02T00:11:12;54.50;;;48.57;;
50555;SDS011;36508;52.512;13.450;2024-03-02T00:13:39;58.27;;;51.83;;
50555;SDS011;36508;52.512;13.450;2024-03-02T00:16:04;58.37;;;50.80;;
50555;SDS011;36508;52.512;13.450;2024-03-02T00:18:31;49.40;;;44.30;;
50555;SDS011;36508;52.512;13.450;2024-03-02T00:21:01;59.13;;;47.57;;
50555;SDS011;36508;52.512;13.450;2024-03-02T00:23:30;56.23;;;48.90;;
50555;SDS011;36508;52.512;13.450;2024-03-02T00:25:56;54.10;;;48.30;;
50555;SDS011;36508;52.512;13.450;2024-03-02T00:33:30;53.00;;;47.40;;
50555;SDS011;36508;52.512;13.450;2024-03-02T00:35:58;53.17;;;47.50;;
50555;SDS011;36508;52.512;13.450;2024-03-02T00:38:24;48.03;;;42.60;;
50555;SDS011;36508;52.512;13.450;2024-03-02T00:40:51;52.40;;;46.90;;
50555;SDS011;36508;52.512;13.450;2024-03-02T00:43:39;50.20;;;45.00;;
50555;SDS011;36508;52.512;13.450;2024-03-02T00:46:21;52.57;;;47.20;;
50555;SDS011;36508;52.512;13.450;2024-03-02T00:48:51;48.07;;;43.13;;
50555;SDS011;36508;52.512;13.450;2024-03-02T00:51:19;54.23;;;48.73;;
50555;SDS011;36508;52.512;13.450;2024-03-02T00:53:48;51.60;;;46.27;;
50555;SDS011;36508;52.512;13.450;2024-03-02T00:56:15;52.80;;;46.03;;
50555;SDS011;36508;52.512;13.450;2024-03-02T00:58:44;51.47;;;45.90;;
50555;SDS011;36508;52.512;13.450;2024-03-02T01:01:10;54.83;;;45.33;;
50555;SDS011;36508;52.512;13.450;2024-03-02T01:03:35;49.80;;;44.57;;
50555;SDS011;36508;52.512;13.450;2024-03-02T01:06:02;54.17;;;48.27;;
50555;SDS011;36508;52.512;13.450;2024-03-02T01:08:28;53.87;;;45.80;;
50555;SDS011;36508;52.512;13.450;2024-03-02T01:10:53;55.23;;;48.07;;
50555;SDS011;36508;52.512;13.450;2024-03-02T01:13:19;55.57;;;48.67;;
50555;SDS011;36508;52.512;13.450;2024-03-02T01:15:46;52.10;;;46.37;;
50555;SDS011;36508;52.512;13.450;2024-03-02T01:18:12;53.37;;;47.83;;
50555;SDS011;36508;52.512;13.450;2024-03-02T01:20:37;67.47;;;53.67;;
50555;SDS011;36508;52.512;13.450;2024-03-02T01:23:03;83.90;;;60.30;;
50555;SDS011;36508;52.512;13.450;2024-03-02T01:25:28;199.87;;;111.07;;
50555;SDS011;36508;52.512;13.450;2024-03-02T01:27:54;278.03;;;142.33;;
50555;SDS011;36508;52.512;13.450;2024-03-02T01:30:19;366.37;;;181.70;;
50555;SDS011;36508;52.512;13.450;2024-03-02T01:32:46;333.37;;;170.87;;
50555;SDS011;36508;52.512;13.450;2024-03-02T01:35:11;299.87;;;145.93;;
50555;SDS011;36508;52.512;13.450;2024-03-02T01:37:37;246.50;;;128.70;;
50555;SDS011;36508;52.512;13.450;2024-03-02T01:40:03;243.87;;;127.80;;
50555;SDS011;36508;52.512;13.450;2024-03-02T01:42:34;225.73;;;120.20;;
50555;SDS011;36508;52.512;13.450;2024-03-02T01:45:04;141.93;;;80.07;;
50555;SDS011;36508;52.512;13.450;2024-03-02T01:47:31;137.87;;;79.90;;
50555;SDS011;36508;52.512;13.450;2024-03-02T01:49:57;125.90;;;79.73;;
50555;SDS011;36508;52.512;13.450;2024-03-02T01:52:23;110.97;;;71.20;;
50555;SDS011;36508;52.512;13.450;2024-03-02T01:54:49;93.90;;;66.20;;
50555;SDS011;36508;52.512;13.450;2024-03-02T01:57:14;103.17;;;67.17;;
50555;SDS011;36508;52.512;13.450;2024-03-02T01:59:41;94.17;;;62.50;;
50555;SDS011;36508;52.512;13.450;2024-03-02T02:02:06;94.70;;;63.77;;
50555;SDS011;36508;52.512;13.450;2024-03-02T02:04:33;80.70;;;62.97;;
50555;SDS011;36508;52.512;13.450;2024-03-02T02:06:58;79.77;;;60.10;;
50555;SDS011;36508;52.512;13.450;2024-03-02T02:09:24;85.17;;;61.93;;
50555;SDS011;36508;52.512;13.450;2024-03-02T02:11:50;62.87;;;53.40;;
50555;SDS011;36508;52.512;13.450;2024-03-02T02:14:16;56.47;;;50.40;;
50555;SDS011;36508;52.512;13.450;2024-03-02T02:16:42;59.63;;;50.50;;
50555;SDS011;36508;52.512;13.450;2024-03-02T02:19:08;66.37;;;52.27;;
50555;SDS011;36508;52.512;13.450;2024-03-02T02:21:34;57.47;;;51.30;;
50555;SDS011;36508;52.512;13.450;2024-03-02T02:24:00;58.30;;;51.70;;
50555;SDS011;36508;52.512;13.450;2024-03-02T02:26:28;62.27;;;55.13;;
50555;SDS011;36508;52.512;13.450;2024-03-02T02:28:54;59.87;;;53.30;;
50555;SDS011;36508;52.512;13.450;2024-03-02T02:31:19;59.10;;;53.00;;
50555;SDS011;36508;52.512;13.450;2024-03-02T02:33:45;62.47;;;51.50;;
50555;SDS011;36508;52.512;13.450;2024-03-02T02:36:11;60.83;;;51.53;;
50555;SDS011;36508;52.512;13.450;2024-03-02T02:38:38;65.57;;;55.33;;
50555;SDS011;36508;52.512;13.450;2024-03-02T02:41:06;54.00;;;48.20;;
50555;SDS011;36508;52.512;13.450;2024-03-02T02:43:32;58.27;;;52.47;;
50555;SDS011;36508;52.512;13.450;2024-03-02T02:45:58;60.60;;;51.33;;
50555;SDS011;36508;52.512;13.450;2024-03-02T02:48:23;57.47;;;51.27;;
50555;SDS011;36508;52.512;13.450;2024-03-02T02:50:49;63.07;;;53.63;;
50555;SDS011;36508;52.512;13.450;2024-03-02T02:53:14;61.47;;;52.53;;
50555;SDS011;36508;52.512;13.450;2024-03-02T02:55:40;59.27;;;51.27;;
50555;SDS011;36508;52.512;13.450;2024-03-02T02:58:06;62.77;;;54.80;;
50555;SDS011;36508;52.512;13.450;2024-03-02T03:00:31;58.93;;;52.20;;
50555;SDS011;36508;52.512;13.450;2024-03-02T03:02:57;68.73;;;58.13;;
50555;SDS011;36508;52.512;13.450;2024-03-02T03:05:23;57.13;;;51.23;;
50555;SDS011;36508;52.512;13.450;2024-03-02T03:07:48;65.00;;;53.67;;
50555;SDS011;36508;52.512;13.450;2024-03-02T03:10:15;61.00;;;51.60;;
50555;SDS011;36508;52.512;13.450;2024-03-02T03:12:41;55.20;;;49.40;;
50555;SDS011;36508;52.512;13.450;2024-03-02T03:15:08;57.57;;;50.77;;
50555;SDS011;36508;52.512;13.450;2024-03-02T03:17:35;54.53;;;48.07;;
50555;SDS011;36508;52.512;13.450;2024-03-02T03:20:02;56.50;;;50.77;;
50555;SDS011;36508;52.512;13.450;2024-03-02T03:22:29;57.43;;;51.33;;
50555;SDS011;36508;52.512;13.450;2024-03-02T03:24:58;58.33;;;52.23;;
50555;SDS011;36508;52.512;13.450;2024-03-02T03:27:23;59.20;;;50.47;;
50555;SDS011;36508;52.512;13.450;2024-03-02T03:29:49;54.87;;;47.90;;
50555;SDS011;36508;52.512;13.450;2024-03-02T03:34:50;60.83;;;49.60;;
50555;SDS011;36508;52.512;13.450;2024-03-02T03:37:15;57.57;;;51.33;;
50555;SDS011;36508;52.512;13.450;2024-03-02T03:39:41;53.47;;;47.90;;
50555;SDS011;36508;52.512;13.450;2024-03-02T03:42:06;54.50;;;48.50;;
50555;SDS011;36508;52.512;13.450;2024-03-02T03:44:32;66.83;;;46.77;;
50555;SDS011;36508;52.512;13.450;2024-03-02T03:46:58;51.80;;;46.30;;
50555;SDS011;36508;52.512;13.450;2024-03-02T03:49:24;55.23;;;49.03;;
50555;SDS011;36508;52.512;13.450;2024-03-02T03:51:50;51.90;;;45.40;;
50555;SDS011;36508;52.512;13.450;2024-03-02T03:54:18;50.13;;;44.80;;
50555;SDS011;36508;52.512;13.450;2024-03-02T03:56:43;52.40;;;45.80;;
50555;SDS011;36508;52.512;13.450;2024-03-02T03:59:10;48.13;;;43.23;;
50555;SDS011;36508;52.512;13.450;2024-03-02T04:01:39;48.87;;;43.70;;
50555;SDS011;36508;52.512;13.450;2024-03-02T04:04:04;51.13;;;45.13;;
50555;SDS011;36508;52.512;13.450;2024-03-02T04:06:30;51.07;;;45.67;;
50555;SDS011;36508;52.512;13.450;2024-03-02T04:08:59;51.30;;;45.90;;
50555;SDS011;36508;52.512;13.450;2024-03-02T04:11:24;53.00;;;47.20;;
50555;SDS011;36508;52.512;13.450;2024-03-02T04:13:53;49.53;;;44.63;;
50555;SDS011;36508;52.512;13.450;2024-03-02T04:16:19;48.03;;;42.27;;
50555;SDS011;36508;52.512;13.450;2024-03-02T08:54:23;41.33;;;37.23;;
50555;SDS011;36508;52.512;13.450;2024-03-02T08:56:49;47.20;;;39.87;;
50555;SDS011;36508;52.512;13.450;2024-03-02T08:59:15;49.80;;;42.63;;
50555;SDS011;36508;52.512;13.450;2024-03-02T09:01:41;48.23;;;43.23;;
50555;SDS011;36508;52.512;13.450;2024-03-02T09:04:07;47.37;;;42.20;;
50555;SDS011;36508;52.512;13.450;2024-03-02T09:06:38;44.43;;;39.70;;
50555;SDS011;36508;52.512;13.450;2024-03-02T09:09:04;47.90;;;42.87;;
50555;SDS011;36508;52.512;13.450;2024-03-02T09:11:29;52.70;;;46.07;;
50555;SDS011;36508;52.512;13.450;2024-03-02T09:13:55;48.13;;;42.27;;
50555;SDS011;36508;52.512;13.450;2024-03-02T09:16:21;54.40;;;48.50;;
50555;SDS011;36508;52.512;13.450;2024-03-02T09:18:47;49.27;;;44.17;;
50555;SDS011;36508;52.512;13.450;2024-03-02T09:21:12;49.93;;;44.47;;
50555;SDS011;36508;52.512;13.450;2024-03-02T09:23:38;46.87;;;41.97;;
50555;SDS011;36508;52.512;13.450;2024-03-02T09:26:05;46.93;;;39.37;;
50555;SDS011;36508;52.512;13.450;2024-03-02T09:28:30;46.70;;;41.67;;
50555;SDS011;36508;52.512;13.450;2024-03-02T09:30:56;45.13;;;40.30;;
50555;SDS011;36508;52.512;13.450;2024-03-02T09:33:22;46.83;;;40.53;;
50555;SDS011;36508;52.512;13.450;2024-03-02T09:35:47;46.83;;;41.23;;
50555;SDS011;36508;52.512;13.450;2024-03-02T09:38:13;45.13;;;40.33;;
50555;SDS011;36508;52.512;13.450;2024-03-02T09:40:40;46.67;;;41.67;;
50555;SDS011;36508;52.512;13.450;2024-03-02T09:43:07;38.33;;;34.50;;
50555;SDS011;36508;52.512;13.450;2024-03-02T09:45:32;43.37;;;38.80;;
50555;SDS011;36508;52.512;13.450;2024-03-02T09:47:59;47.03;;;37.63;;
50555;SDS011;36508;52.512;13.450;2024-03-02T09:50:28;41.33;;;36.97;;
50555;SDS011;36508;52.512;13.450;2024-03-02T09:52:54;42.17;;;37.77;;
50555;SDS011;36508;52.512;13.450;2024-03-02T09:55:21;43.53;;;38.97;;
50555;SDS011;36508;52.512;13.450;2024-03-02T09:57:50;45.20;;;36.83;;
50555;SDS011;36508;52.512;13.450;2024-03-02T10:00:16;46.33;;;41.70;;
50555;SDS011;36508;52.512;13.450;2024-03-02T10:02:43;41.77;;;37.47;;
50555;SDS011;36508;52.512;13.450;2024-03-02T10:05:09;45.57;;;39.47;;
50555;SDS011;36508;52.512;13.450;2024-03-02T10:07:36;40.33;;;35.67;;
50555;SDS011;36508;52.512;13.450;2024-03-02T10:10:15;47.37;;;35.70;;
50555;SDS011;36508;52.512;13.450;2024-03-02T10:12:41;44.07;;;37.60;;
50555;SDS011;36508;52.512;13.450;2024-03-02T10:15:06;38.83;;;34.83;;
50555;SDS011;36508;52.512;13.450;2024-03-02T10:17:34;40.33;;;36.17;;
50555;SDS011;36508;52.512;13.450;2024-03-02T10:19:59;38.53;;;34.20;;
50555;SDS011;36508;52.512;13.450;2024-03-02T10:22:49;36.17;;;32.50;;
50555;SDS011;36508;52.512;13.450;2024-03-02T10:25:28;40.47;;;36.70;;
50555;SDS011;36508;52.512;13.450;2024-03-02T10:30:23;38.03;;;34.07;;
50555;SDS011;36508;52.512;13.450;2024-03-02T10:32:49;35.77;;;32.10;;
50555;SDS011;36508;52.512;13.450;2024-03-02T10:35:15;36.13;;;32.43;;
50555;SDS011;36508;52.512;13.450;2024-03-02T10:37:41;34.50;;;31.10;;
50555;SDS011;36508;52.512;13.450;2024-03-02T10:40:07;31.57;;;28.27;;
50555;SDS011;36508;52.512;13.450;2024-03-02T10:42:37;30.57;;;27.60;;
50555;SDS011;36508;52.512;13.450;2024-03-02T10:45:05;32.37;;;29.27;;
50555;SDS011;36508;52.512;13.450;2024-03-02T10:47:33;30.03;;;27.13;;
50555;SDS011;36508;52.512;13.450;2024-03-02T10:50:00;30.00;;;26.97;;
50555;SDS011;36508;52.512;13.450;2024-03-02T10:52:28;30.20;;;27.10;;
50555;SDS011;36508;52.512;13.450;2024-03-02T10:54:54;28.67;;;25.73;;
50555;SDS011;36508;52.512;13.450;2024-03-02T10:57:21;28.30;;;25.47;;
50555;SDS011;36508;52.512;13.450;2024-03-02T10:59:56;27.53;;;24.10;;
50555;SDS011;36508;52.512;13.450;2024-03-02T11:02:23;26.80;;;24.07;;
50555;SDS011;36508;52.512;13.450;2024-03-02T11:04:50;28.07;;;25.23;;
50555;SDS011;36508;52.512;13.450;2024-03-02T11:07:20;29.47;;;25.23;;
50555;SDS011;36508;52.512;13.450;2024-03-02T11:09:50;27.13;;;24.33;;
50555;SDS011;36508;52.512;13.450;2024-03-02T11:12:23;27.17;;;24.57;;
50555;SDS011;36508;52.512;13.450;2024-03-02T11:15:14;25.73;;;23.43;;
50555;SDS011;36508;52.512;13.450;2024-03-02T11:17:44;23.73;;;21.23;;
50555;SDS011;36508;52.512;13.450;2024-03-02T11:20:11;24.87;;;22.27;;
50555;SDS011;36508;52.512;13.450;2024-03-02T11:22:38;24.87;;;22.37;;
50555;SDS011;36508;52.512;13.450;2024-03-02T11:25:04;28.10;;;25.20;;
50555;SDS011;36508;52.512;13.450;2024-03-02T11:30:56;26.87;;;24.33;;
50555;SDS011;36508;52.512;13.450;2024-03-02T11:33:00;26.93;;;23.87;;
50555;SDS011;36508;52.512;13.450;2024-03-02T11:35:37;30.33;;;26.03;;
50555;SDS011;36508;52.512;13.450;2024-03-02T11:38:03;26.07;;;23.57;;
50555;SDS011;36508;52.512;13.450;2024-03-02T11:40:29;21.93;;;19.80;;
50555;SDS011;36508;52.512;13.450;2024-03-02T11:42:56;26.83;;;23.07;;
50555;SDS011;36508;52.512;13.450;2024-03-02T11:45:24;26.43;;;23.77;;
50555;SDS011;36508;52.512;13.450;2024-03-02T11:47:51;24.57;;;22.00;;
50555;SDS011;36508;52.512;13.450;2024-03-02T11:53:14;27.63;;;24.93;;
50555;SDS011;36508;52.512;13.450;2024-03-02T11:55:40;24.40;;;22.07;;
50555;SDS011;36508;52.512;13.450;2024-03-02T11:58:09;25.00;;;22.73;;
50555;SDS011;36508;52.512;13.450;2024-03-02T12:00:35;24.60;;;22.00;;
50555;SDS011;36508;52.512;13.450;2024-03-02T12:03:04;28.30;;;25.50;;
50555;SDS011;36508;52.512;13.450;2024-03-02T12:05:33;23.93;;;21.50;;
50555;SDS011;36508;52.512;13.450;2024-03-02T12:08:01;24.93;;;22.27;;
50555;SDS011;36508;52.512;13.450;2024-03-02T12:10:30;24.03;;;21.80;;
50555;SDS011;36508;52.512;13.450;2024-03-02T12:13:03;23.77;;;21.43;;
50555;SDS011;36508;52.512;13.450;2024-03-02T12:15:32;26.10;;;22.67;;
50555;SDS011;36508;52.512;13.450;2024-03-02T12:17:59;24.00;;;21.70;;
50555;SDS011;36508;52.512;13.450;2024-03-02T12:20:27;23.87;;;21.47;;
50555;SDS011;36508;52.512;13.450;2024-03-02T12:22:54;23.50;;;21.00;;
50555;SDS011;36508;52.512;13.450;2024-03-02T12:25:21;23.03;;;20.87;;
50555;SDS011;36508;52.512;13.450;2024-03-02T12:27:52;21.80;;;19.87;;
50555;SDS011;36508;52.512;13.450;2024-03-02T12:30:22;21.37;;;19.17;;
50555;SDS011;36508;52.512;13.450;2024-03-02T12:32:48;21.37;;;19.43;;
50555;SDS011;36508;52.512;13.450;2024-03-02T12:35:14;25.50;;;23.03;;
50555;SDS011;36508;52.512;13.450;2024-03-02T12:37:47;21.53;;;19.83;;
50555;SDS011;36508;52.512;13.450;2024-03-02T12:40:15;19.87;;;18.10;;
50555;SDS011;36508;52.512;13.450;2024-03-02T12:42:45;22.57;;;20.57;;
50555;SDS011;36508;52.512;13.450;2024-03-02T12:45:12;22.57;;;20.17;;
50555;SDS011;36508;52.512;13.450;2024-03-02T12:47:41;22.37;;;20.37;;
50555;SDS011;36508;52.512;13.450;2024-03-02T12:50:08;21.60;;;19.70;;
50555;SDS011;36508;52.512;13.450;2024-03-02T12:52:35;21.47;;;19.77;;
50555;SDS011;36508;52.512;13.450;2024-03-02T12:55:02;22.30;;;20.43;;
50555;SDS011;36508;52.512;13.450;2024-03-02T12:57:32;22.60;;;20.60;;
50555;SDS011;36508;52.512;13.450;2024-03-02T12:59:58;21.87;;;19.93;;
50555;SDS011;36508;52.512;13.450;2024-03-02T13:02:28;19.60;;;18.10;;
50555;SDS011;36508;52.512;13.450;2024-03-02T13:04:54;21.00;;;19.23;;
50555;SDS011;36508;52.512;13.450;2024-03-02T13:07:21;21.13;;;19.00;;
50555;SDS011;36508;52.512;13.450;2024-03-02T13:09:49;21.17;;;19.17;;
50555;SDS011;36508;52.512;13.450;2024-03-02T13:12:15;22.77;;;20.73;;
50555;SDS011;36508;52.512;13.450;2024-03-02T13:14:41;23.80;;;21.30;;
50555;SDS011;36508;52.512;13.450;2024-03-02T13:17:10;22.37;;;20.33;;
50555;SDS011;36508;52.512;13.450;2024-03-02T13:19:39;21.63;;;19.63;;
50555;SDS011;36508;52.512;13.450;2024-03-02T13:22:15;21.77;;;19.70;;
50555;SDS011;36508;52.512;13.450;2024-03-02T13:24:41;27.43;;;24.73;;
50555;SDS011;36508;52.512;13.450;2024-03-02T13:27:07;19.60;;;17.80;;
50555;SDS011;36508;52.512;13.450;2024-03-02T13:29:33;20.03;;;18.33;;
50555;SDS011;36508;52.512;13.450;2024-03-02T13:31:58;20.70;;;18.10;;
50555;SDS011;36508;52.512;13.450;2024-03-02T13:34:24;22.20;;;20.40;;
50555;SDS011;36508;52.512;13.450;2024-03-02T13:36:50;19.53;;;17.70;;
50555;SDS011;36508;52.512;13.450;2024-03-02T13:39:15;20.13;;;18.33;;
50555;SDS011;36508;52.512;13.450;2024-03-02T13:41:41;20.20;;;18.30;;
50555;SDS011;36508;52.512;13.450;2024-03-02T13:44:07;20.13;;;18.27;;
50555;SDS011;36508;52.512;13.450;2024-03-02T13:46:32;16.47;;;15.17;;
50555;SDS011;36508;52.512;13.450;2024-03-02T13:48:58;18.40;;;16.73;;
50555;SDS011;36508;52.512;13.450;2024-03-02T13:51:23;20.50;;;18.27;;
50555;SDS011;36508;52.512;13.450;2024-03-02T13:53:50;18.23;;;16.70;;
50555;SDS011;36508;52.512;13.450;2024-03-02T13:56:16;17.30;;;16.00;;
50555;SDS011;36508;52.512;13.450;2024-03-02T13:58:42;20.03;;;18.13;;
50555;SDS011;36508;52.512;13.450;2024-03-02T14:01:08;20.93;;;19.17;;
50555;SDS011;36508;52.512;13.450;2024-03-02T14:03:34;22.83;;;20.73;;
50555;SDS011;36508;52.512;13.450;2024-03-02T14:06:00;20.47;;;18.70;;
50555;SDS011;36508;52.512;13.450;2024-03-02T14:08:25;20.43;;;18.73;;
50555;SDS011;36508;52.512;13.450;2024-03-02T14:10:51;19.83;;;17.93;;
50555;SDS011;36508;52.512;13.450;2024-03-02T14:13:17;17.80;;;16.10;;
50555;SDS011;36508;52.512;13.450;2024-03-02T14:15:43;17.37;;;15.87;;
50555;SDS011;36508;52.512;13.450;2024-03-02T14:18:09;16.53;;;14.93;;
50555;SDS011;36508;52.512;13.450;2024-03-02T14:20:35;16.70;;;15.30;;
50555;SDS011;36508;52.512;13.450;2024-03-02T14:23:01;20.23;;;18.30;;
50555;SDS011;36508;52.512;13.450;2024-03-02T14:25:27;18.40;;;16.87;;
50555;SDS011;36508;52.512;13.450;2024-03-02T14:27:56;18.70;;;17.03;;
50555;SDS011;36508;52.512;13.450;2024-03-02T14:30:22;17.17;;;15.83;;
50555;SDS011;36508;52.512;13.450;2024-03-02T14:32:48;16.60;;;15.23;;
50555;SDS011;36508;52.512;13.450;2024-03-02T14:35:14;15.63;;;14.00;;
50555;SDS011;36508;52.512;13.450;2024-03-02T14:37:40;20.93;;;19.13;;
50555;SDS011;36508;52.512;13.450;2024-03-02T14:40:06;17.60;;;15.97;;
50555;SDS011;36508;52.512;13.450;2024-03-02T14:42:34;21.60;;;19.50;;
50555;SDS011;36508;52.512;13.450;2024-03-02T14:45:00;18.30;;;16.60;;
50555;SDS011;36508;52.512;13.450;2024-03-02T14:47:27;17.53;;;15.83;;
50555;SDS011;36508;52.512;13.450;2024-03-02T14:49:53;17.37;;;15.93;;
50555;SDS011;36508;52.512;13.450;2024-03-02T14:52:18;18.53;;;17.03;;
50555;SDS011;36508;52.512;13.450;2024-03-02T14:54:44;19.13;;;17.37;;
50555;SDS011;36508;52.512;13.450;2024-03-02T14:57:10;23.93;;;19.07;;
50555;SDS011;36508;52.512;13.450;2024-03-02T15:02:04;21.57;;;19.50;;
50555;SDS011;36508;52.512;13.450;2024-03-02T15:04:32;17.90;;;16.37;;
50555;SDS011;36508;52.512;13.450;2024-03-02T15:06:58;15.80;;;14.50;;
50555;SDS011;36508;52.512;13.450;2024-03-02T15:09:23;16.93;;;15.40;;
50555;SDS011;36508;52.512;13.450;2024-03-02T15:11:49;14.67;;;13.27;;
50555;SDS011;36508;52.512;13.450;2024-03-02T15:14:14;14.90;;;13.50;;
50555;SDS011;36508;52.512;13.450;2024-03-02T15:16:40;14.70;;;13.20;;
50555;SDS011;36508;52.512;13.450;2024-03-02T15:19:07;16.57;;;15.00;;
50555;SDS011;36508;52.512;13.450;2024-03-02T15:21:33;17.83;;;16.07;;
50555;SDS011;36508;52.512;13.450;2024-03-02T15:24:59;17.73;;;16.03;;
50555;SDS011;36508;52.512;13.450;2024-03-02T15:27:25;22.43;;;18.10;;
50555;SDS011;36508;52.512;13.450;2024-03-02T15:30:00;21.67;;;19.67;;
50555;SDS011;36508;52.512;13.450;2024-03-02T15:32:25;16.13;;;14.53;;
50555;SDS011;36508;52.512;13.450;2024-03-02T15:34:52;16.97;;;15.40;;
50555;SDS011;36508;52.512;13.450;2024-03-02T15:37:18;15.00;;;13.17;;
50555;SDS011;36508;52.512;13.450;2024-03-02T15:39:47;14.33;;;13.13;;
50555;SDS011;36508;52.512;13.450;2024-03-02T15:42:13;14.70;;;13.37;;
50555;SDS011;36508;52.512;13.450;2024-03-02T15:44:39;21.53;;;16.70;;
50555;SDS011;36508;52.512;13.450;2024-03-02T15:47:29;12.77;;;11.47;;
50555;SDS011;36508;52.512;13.450;2024-03-02T15:49:58;13.43;;;12.33;;
50555;SDS011;36508;52.512;13.450;2024-03-02T15:52:27;14.37;;;12.97;;
50555;SDS011;36508;52.512;13.450;2024-03-02T15:54:56;13.93;;;12.53;;
50555;SDS011;36508;52.512;13.450;2024-03-02T15:57:22;12.57;;;11.23;;
50555;SDS011;36508;52.512;13.450;2024-03-02T15:59:48;11.30;;;10.20;;
50555;SDS011;36508;52.512;13.450;2024-03-02T16:02:14;12.53;;;11.30;;
50555;SDS011;36508;52.512;13.450;2024-03-02T16:04:40;10.77;;;9.97;;
50555;SDS011;36508;52.512;13.450;2024-03-02T16:07:12;12.50;;;11.33;;
50555;SDS011;36508;52.512;13.450;2024-03-02T16:09:38;13.23;;;12.20;;
50555;SDS011;36508;52.512;13.450;2024-03-02T16:12:03;14.40;;;13.20;;
50555;SDS011;36508;52.512;13.450;2024-03-02T16:14:30;15.67;;;14.13;;
50555;SDS011;36508;52.512;13.450;2024-03-02T16:16:55;14.40;;;13.10;;
50555;SDS011;36508;52.512;13.450;2024-03-02T16:19:21;16.57;;;14.57;;
50555;SDS011;36508;52.512;13.450;2024-03-02T16:21:46;14.57;;;13.33;;
50555;SDS011;36508;52.512;13.450;2024-03-02T16:24:12;16.33;;;14.60;;
50555;SDS011;36508;52.512;13.450;2024-03-02T16:26:37;15.33;;;13.73;;
50555;SDS011;36508;52.512;13.450;2024-03-02T16:29:03;16.17;;;14.50;;
50555;SDS011;36508;52.512;13.450;2024-03-02T16:31:29;16.70;;;15.13;;
50555;SDS011;36508;52.512;13.450;2024-03-02T16:33:54;15.13;;;13.63;;
50555;SDS011;36508;52.512;13.450;2024-03-02T16:36:20;16.10;;;14.20;;
50555;SDS011;36508;52.512;13.450;2024-03-02T16:38:46;17.97;;;16.17;;
50555;SDS011;36508;52.512;13.450;2024-03-02T16:41:12;16.10;;;14.60;;
50555;SDS011;36508;52.512;13.450;2024-03-02T16:43:37;16.33;;;14.87;;
50555;SDS011;36508;52.512;13.450;2024-03-02T16:46:03;18.73;;;16.97;;
50555;SDS011;36508;52.512;13.450;2024-03-02T16:48:30;15.83;;;13.80;;
50555;SDS011;36508;52.512;13.450;2024-03-02T16:50:57;16.17;;;14.57;;
50555;SDS011;36508;52.512;13.450;2024-03-02T16:53:22;19.70;;;17.77;;
50555;SDS011;36508;52.512;13.450;2024-03-02T16:55:48;20.33;;;18.23;;
50555;SDS011;36508;52.512;13.450;2024-03-02T16:58:15;18.80;;;16.90;;
50555;SDS011;36508;52.512;13.450;2024-03-02T17:00:43;17.33;;;15.50;;
50555;SDS011;36508;52.512;13.450;2024-03-02T17:03:10;18.80;;;17.00;;
50555;SDS011;36508;52.512;13.450;2024-03-02T17:05:35;21.00;;;18.80;;
50555;SDS011;36508;52.512;13.450;2024-03-02T17:08:01;19.60;;;17.50;;
50555;SDS011;36508;52.512;13.450;2024-03-02T17:10:33;21.60;;;19.50;;
50555;SDS011;36508;52.512;13.450;2024-03-02T17:12:58;18.93;;;17.13;;
50555;SDS011;36508;52.512;13.450;2024-03-02T17:15:27;19.00;;;17.10;;
50555;SDS011;36508;52.512;13.450;2024-03-02T17:17:59;18.47;;;16.67;;
50555;SDS011;36508;52.512;13.450;2024-03-02T17:20:25;22.60;;;18.67;;
50555;SDS011;36508;52.512;13.450;2024-03-02T17:22:56;19.93;;;18.13;;
50555;SDS011;36508;52.512;13.450;2024-03-02T17:25:22;17.30;;;15.53;;
50555;SDS011;36508;52.512;13.450;2024-03-02T17:27:48;22.90;;;17.60;;
50555;SDS011;36508;52.512;13.450;2024-03-02T17:30:14;19.30;;;17.43;;
50555;SDS011;36508;52.512;13.450;2024-03-02T17:32:39;18.23;;;16.63;;
50555;SDS011;36508;52.512;13.450;2024-03-02T17:35:09;22.37;;;17.33;;
50555;SDS011;36508;52.512;13.450;2024-03-02T17:37:36;22.53;;;20.47;;
50555;SDS011;36508;52.512;13.450;2024-03-02T17:40:05;21.57;;;19.43;;
50555;SDS011;36508;52.512;13.450;2024-03-02T17:42:40;20.30;;;17.10;;
50555;SDS011;36508;52.512;13.450;2024-03-02T17:45:10;17.73;;;15.83;;
50555;SDS011;36508;52.512;13.450;2024-03-02T17:47:36;18.83;;;16.83;;
50555;SDS011;36508;52.512;13.450;2024-03-02T17:50:07;19.37;;;17.60;;
50555;SDS011;36508;52.512;13.450;2024-03-02T17:52:33;20.10;;;17.40;;
50555;SDS011;36508;52.512;13.450;2024-03-02T17:54:59;21.10;;;18.83;;
50555;SDS011;36508;52.512;13.450;2024-03-02T17:57:25;19.60;;;17.80;;
50555;SDS011;36508;52.512;13.450;2024-03-02T17:59:54;20.87;;;18.73;;
50555;SDS011;36508;52.512;13.450;2024-03-02T18:02:25;20.10;;;18.10;;
50555;SDS011;36508;52.512;13.450;2024-03-02T18:04:55;21.07;;;18.97;;
50555;SDS011;36508;52.512;13.450;2024-03-02T18:07:29;20.30;;;18.33;;
50555;SDS011;36508;52.512;13.450;2024-03-02T18:09:55;20.70;;;18.53;;
50555;SDS011;36508;52.512;13.450;2024-03-02T18:12:25;21.47;;;19.13;;
50555;SDS011;36508;52.512;13.450;2024-03-02T18:14:51;21.97;;;19.60;;
50555;SDS011;36508;52.512;13.450;2024-03-02T18:17:18;20.33;;;18.17;;
50555;SDS011;36508;52.512;13.450;2024-03-02T18:19:53;20.47;;;18.60;;
50555;SDS011;36508;52.512;13.450;2024-03-02T18:22:21;22.03;;;19.93;;
50555;SDS011;36508;52.512;13.450;2024-03-02T18:24:47;25.90;;;22.27;;
50555;SDS011;36508;52.512;13.450;2024-03-02T18:29:45;23.27;;;20.90;;
50555;SDS011;36508;52.512;13.450;2024-03-02T18:32:11;26.27;;;22.57;;
50555;SDS011;36508;52.512;13.450;2024-03-02T18:34:37;22.40;;;19.90;;
50555;SDS011;36508;52.512;13.450;2024-03-02T18:37:03;23.27;;;21.00;;
50555;SDS011;36508;52.512;13.450;2024-03-02T18:39:31;23.73;;;21.40;;
50555;SDS011;36508;52.512;13.450;2024-03-02T18:41:57;26.47;;;23.73;;
50555;SDS011;36508;52.512;13.450;2024-03-02T18:44:25;25.47;;;22.83;;
50555;SDS011;36508;52.512;13.450;2024-03-02T18:46:54;29.20;;;26.10;;
50555;SDS011;36508;52.512;13.450;2024-03-02T18:49:23;25.17;;;22.90;;
50555;SDS011;36508;52.512;13.450;2024-03-02T18:51:48;27.40;;;23.40;;
50555;SDS011;36508;52.512;13.450;2024-03-02T18:54:14;23.67;;;21.20;;
50555;SDS011;36508;52.512;13.450;2024-03-02T18:56:41;22.40;;;19.97;;
50555;SDS011;36508;52.512;13.450;2024-03-02T18:59:10;25.27;;;22.67;;
50555;SDS011;36508;52.512;13.450;2024-03-02T19:01:36;25.60;;;22.00;;
50555;SDS011;36508;52.512;13.450;2024-03-02T19:04:04;23.03;;;20.90;;
50555;SDS011;36508;52.512;13.450;2024-03-02T19:06:30;20.43;;;18.63;;